Time;durP1;ratioP1;P1;durP2;ratioP2;P2;SDS_P1;SDS_P2;PMS_P1;PMS_P2;Temp;Humidity;BMP_temperature;BMP_pressure;BME280_temperature;BME280_humidity;BME280_pressure;Samples;Min_cycle;Max_cycle;Signal;HPM_P1;HPM_P2
2023/08/29 00:01:49;;;;;;;0.03;0.03;;;16.90;99.90;;;;;;5093354;28;20081;-78
2023/08/29 00:04:15;;;;;;;0.10;0.10;;;16.90;99.90;;;;;;5093288;28;20028;-77
2023/08/29 00:06:41;;;;;;;0.00;0.00;;;16.80;99.90;;;;;;5093110;28;20403;-77
2023/08/29 00:09:07;;;;;;;0.00;0.00;;;16.60;99.90;;;;;;5093125;28;20032;-78
2023/08/29 00:11:33;;;;;;;0.00;0.00;;;16.60;99.90;;;;;;5092928;28;20034;-78
2023/08/29 00:13:59;;;;;;;0.00;0.00;;;16.60;99.90;;;;;;5093051;28;20021;-77
2023/08/29 00:16:25;;;;;;;0.00;0.00;;;16.20;99.90;;;;;;5093325;28;20056;-77
2023/08/29 00:18:51;;;;;;;0.00;0.00;;;16.10;99.90;;;;;;5092895;28;20479;-77
2023/08/29 00:21:17;;;;;;;0.00;0.00;;;16.30;99.90;;;;;;5093271;28;20024;-77
2023/08/29 00:23:43;;;;;;;0.00;0.00;;;16.40;99.90;;;;;;5092865;28;20028;-77
2023/08/29 00:26:09;;;;;;;0.00;0.00;;;16.20;99.90;;;;;;5092398;28;20070;-77
2023/08/29 00:28:35;;;;;;;0.00;0.00;;;15.90;99.90;;;;;;5090126;28;20016;-77
2023/08/29 00:31:01;;;;;;;0.00;0.00;;;15.90;99.90;;;;;;5081405;28;20108;-74
2023/08/29 00:33:27;;;;;;;0.00;0.00;;;16.00;99.90;;;;;;5086370;28;20110;-76
2023/08/29 00:35:53;;;;;;;0.00;0.00;;;16.00;99.90;;;;;;5078882;28;20438;-76
2023/08/29 00:38:19;;;;;;;0.00;0.00;;;16.00;99.90;;;;;;5074026;28;20064;-76
2023/08/29 00:40:45;;;;;;;0.00;0.00;;;15.90;99.90;;;;;;5077676;28;20455;-77
2023/08/29 00:43:11;;;;;;;0.00;0.00;;;15.70;99.90;;;;;;5077901;28;20028;-76
2023/08/29 00:45:37;;;;;;;0.00;0.00;;;15.70;99.90;;;;;;5082362;28;20020;-76
2023/08/29 00:48:05;;;;;;;0.00;0.00;;;15.80;99.90;;;;;;5082432;28;20078;-77
2023/08/29 00:50:31;;;;;;;0.00;0.00;;;16.00;99.90;;;;;;5087194;28;20020;-76
2023/08/29 00:53:01;;;;;;;0.00;0.00;;;16.00;99.90;;;;;;5089211;28;20157;-77
2023/08/29 00:55:28;;;;;;;0.00;0.00;;;15.90;99.90;;;;;;5092633;28;20036;-77
2023/08/29 00:57:57;;;;;;;0.00;0.00;;;15.80;99.90;;;;;;5094394;28;20516;-77
2023/08/29 01:00:32;;;;;;;0.00;0.00;;;15.70;99.90;;;;;;5070384;28;20032;-78
2023/08/29 01:02:59;;;;;;;0.00;0.00;;;15.90;99.90;;;;;;5083461;28;20100;-76
2023/08/29 01:05:28;;;;;;;0.00;0.00;;;15.80;99.90;;;;;;5078767;28;20032;-77
2023/08/29 01:07:58;;;;;;;0.25;0.25;;;15.80;99.90;;;;;;5082235;28;20454;-73
2023/08/29 01:10:37;;;;;;;0.73;0.73;;;15.50;99.90;;;;;;5081291;28;20520;-78
2023/08/29 01:13:17;;;;;;;0.10;0.10;;;15.40;99.90;;;;;;5087526;28;20031;-77
2023/08/29 01:15:47;;;;;;;0.00;0.00;;;15.40;99.90;;;;;;5076208;28;20021;-77
2023/08/29 01:18:15;;;;;;;0.30;0.30;;;15.50;99.90;;;;;;5090850;28;20054;-77
2023/08/29 01:20:42;;;;;;;0.00;0.00;;;15.50;99.90;;;;;;5067071;28;20086;-76
2023/08/29 01:23:21;;;;;;;0.00;0.00;;;15.70;99.90;;;;;;5074434;28;20021;-78
2023/08/29 01:26:20;;;;;;;0.00;0.00;;;15.70;99.90;;;;;;5074567;28;20110;-77
2023/08/29 01:28:47;;;;;;;0.13;0.13;;;15.80;99.90;;;;;;5059728;28;20401;-76
2023/08/29 01:31:15;;;;;;;0.10;0.10;;;16.00;99.90;;;;;;5085878;28;21370;-77
2023/08/29 01:33:41;;;;;;;0.00;0.00;;;15.90;99.90;;;;;;5092279;28;20399;-76
2023/08/29 01:36:07;;;;;;;0.00;0.00;;;15.90;99.90;;;;;;5083686;28;20108;-77
2023/08/29 01:38:33;;;;;;;0.20;0.20;;;15.80;99.90;;;;;;5078293;28;20043;-76
2023/08/29 01:40:59;;;;;;;0.20;0.20;;;15.50;99.90;;;;;;5070915;28;20028;-78
2023/08/29 01:43:25;;;;;;;0.03;0.03;;;15.40;99.90;;;;;;5074757;28;20028;-79
2023/08/29 01:45:51;;;;;;;0.00;0.00;;;15.70;99.90;;;;;;5073677;28;20094;-78
2023/08/29 01:48:17;;;;;;;0.00;0.00;;;15.80;99.90;;;;;;5073982;28;20108;-78
2023/08/29 01:50:44;;;;;;;0.00;0.00;;;15.80;99.90;;;;;;5068100;28;20047;-76
2023/08/29 01:53:10;;;;;;;0.00;0.00;;;15.60;99.90;;;;;;5071326;28;20029;-76
2023/08/29 01:55:38;;;;;;;0.00;0.00;;;15.60;99.90;;;;;;5075650;28;20493;-78
2023/08/29 01:58:05;;;;;;;0.00;0.00;;;15.50;99.90;;;;;;5066968;28;20182;-77
2023/08/29 02:00:32;;;;;;;0.00;0.00;;;15.50;99.90;;;;;;5073941;28;20028;-77
2023/08/29 02:02:58;;;;;;;0.00;0.00;;;15.50;99.90;;;;;;5066814;28;20024;-78
2023/08/29 02:05:24;;;;;;;0.00;0.00;;;15.60;99.90;;;;;;5081307;28;20656;-78
2023/08/29 02:07:50;;;;;;;0.00;0.00;;;15.50;99.90;;;;;;5079703;28;20017;-77
2023/08/29 02:10:17;;;;;;;0.00;0.00;;;15.50;99.90;;;;;;5073409;28;20048;-78
2023/08/29 02:12:43;;;;;;;0.00;0.00;;;15.50;99.90;;;;;;5076131;28;20536;-75
2023/08/29 02:15:09;;;;;;;0.00;0.00;;;15.50;99.90;;;;;;5079728;28;20070;-78
2023/08/29 02:17:38;;;;;;;0.00;0.00;;;15.50;99.90;;;;;;5075047;28;20040;-76
2023/08/29 02:20:08;;;;;;;0.00;0.00;;;15.50;99.90;;;;;;5075748;28;20028;-76
2023/08/29 02:22:34;;;;;;;0.00;0.00;;;15.60;99.90;;;;;;5090778;28;20462;-77
2023/08/29 02:25:02;;;;;;;0.00;0.00;;;15.60;99.90;;;;;;5090456;28;20357;-77
2023/08/29 02:27:28;;;;;;;0.00;0.00;;;15.60;99.90;;;;;;5071878;28;20021;-78
2023/08/29 02:29:53;;;;;;;0.00;0.00;;;15.70;99.90;;;;;;5080657;28;20039;-78
2023/08/29 02:32:20;;;;;;;0.00;0.00;;;15.70;99.90;;;;;;5078209;28;20032;-77
2023/08/29 02:34:46;;;;;;;0.00;0.00;;;15.70;99.90;;;;;;5077395;28;20551;-78
2023/08/29 02:37:11;;;;;;;0.00;0.00;;;15.60;99.90;;;;;;5075162;28;20055;-78
2023/08/29 02:39:37;;;;;;;0.00;0.00;;;15.60;99.90;;;;;;5083930;28;20028;-77
2023/08/29 02:42:03;;;;;;;0.00;0.00;;;15.50;99.90;;;;;;5079108;28;20024;-77
2023/08/29 02:44:29;;;;;;;0.00;0.00;;;15.50;99.90;;;;;;5077538;28;20033;-78
2023/08/29 02:46:55;;;;;;;0.15;0.15;;;15.40;99.90;;;;;;5074981;28;20021;-77
2023/08/29 02:49:20;;;;;;;0.77;0.60;;;15.00;99.90;;;;;;5076157;28;20039;-77
2023/08/29 02:51:46;;;;;;;0.00;0.00;;;14.80;99.90;;;;;;5079901;28;20024;-77
2023/08/29 02:54:13;;;;;;;0.25;0.25;;;14.60;99.90;;;;;;5082483;28;20036;-76
2023/08/29 02:56:38;;;;;;;0.00;0.00;;;14.90;99.90;;;;;;5085852;28;20024;-77
2023/08/29 02:59:04;;;;;;;0.10;0.10;;;15.10;99.90;;;;;;5086034;28;20035;-77
2023/08/29 03:01:30;;;;;;;0.00;0.00;;;15.30;99.90;;;;;;5078872;28;20017;-77
2023/08/29 03:03:56;;;;;;;0.00;0.00;;;15.30;99.90;;;;;;5056320;28;20101;-77
2023/08/29 03:06:21;;;;;;;0.65;0.65;;;15.50;99.90;;;;;;5071340;28;20089;-75
2023/08/29 03:08:47;;;;;;;2.65;1.13;;;15.40;99.90;;;;;;5059099;28;20048;-78
2023/08/29 03:11:13;;;;;;;0.00;0.00;;;15.40;99.90;;;;;;5078967;28;20369;-74
2023/08/29 03:13:39;;;;;;;0.00;0.00;;;15.40;99.90;;;;;;5077131;28;20024;-77
2023/08/29 03:16:12;;;;;;;0.00;0.00;;;15.50;99.90;;;;;;5060308;28;20404;-78
2023/08/29 03:18:39;;;;;;;0.00;0.00;;;15.60;99.90;;;;;;5084117;28;20039;-76
2023/08/29 03:21:09;;;;;;;0.05;0.05;;;15.70;99.90;;;;;;5084743;28;20012;-77
2023/08/29 03:23:35;;;;;;;0.00;0.00;;;15.70;99.90;;;;;;5089664;28;20062;-78
2023/08/29 03:26:09;;;;;;;0.10;0.10;;;15.90;99.90;;;;;;5091785;28;20376;-77
2023/08/29 03:28:36;;;;;;;1.95;0.40;;;15.90;99.90;;;;;;5057659;28;20404;-77
2023/08/29 03:31:13;;;;;;;5.03;0.73;;;15.20;99.90;;;;;;5091586;28;20024;-77
2023/08/29 03:33:40;;;;;;;0.08;0.08;;;15.10;99.90;;;;;;5088649;28;20043;-77
2023/08/29 03:36:07;;;;;;;0.40;0.35;;;15.00;99.90;;;;;;5087472;28;20016;-77
2023/08/29 03:38:40;;;;;;;0.45;0.40;;;15.20;99.90;;;;;;5090940;28;20040;-78
2023/08/29 03:41:07;;;;;;;0.10;0.10;;;15.20;99.90;;;;;;5090887;28;20020;-78
2023/08/29 03:43:34;;;;;;;0.10;0.10;;;15.40;99.90;;;;;;5088134;28;20028;-77
2023/08/29 03:46:02;;;;;;;0.38;0.38;;;15.50;99.90;;;;;;5072063;28;20116;-77
2023/08/29 03:48:28;;;;;;;0.00;0.00;;;15.70;99.90;;;;;;5078064;28;20024;-76
2023/08/29 03:50:54;;;;;;;1.92;0.63;;;15.50;99.90;;;;;;5075991;28;20460;-78
2023/08/29 03:53:22;;;;;;;0.00;0.00;;;15.50;99.90;;;;;;5082525;28;20035;-77
2023/08/29 03:55:48;;;;;;;0.00;0.00;;;15.70;99.90;;;;;;5079516;28;20070;-76
2023/08/29 03:58:14;;;;;;;0.00;0.00;;;16.00;99.90;;;;;;5071487;28;20052;-78
2023/08/29 04:00:41;;;;;;;0.00;0.00;;;16.00;99.90;;;;;;5073264;28;20027;-77
2023/08/29 04:03:07;;;;;;;0.00;0.00;;;16.00;99.90;;;;;;5073230;28;20028;-77
2023/08/29 04:05:42;;;;;;;0.00;0.00;;;16.00;99.90;;;;;;5070948;28;20074;-77
2023/08/29 04:08:10;;;;;;;0.25;0.25;;;16.10;99.90;;;;;;5072383;28;20028;-74
2023/08/29 04:10:38;;;;;;;0.40;0.40;;;16.20;99.90;;;;;;5072677;28;20020;-77
2023/08/29 04:13:06;;;;;;;0.30;0.30;;;15.70;99.90;;;;;;5071334;28;20468;-78
2023/08/29 04:15:33;;;;;;;0.28;0.28;;;15.50;99.90;;;;;;5064815;28;20020;-77
2023/08/29 04:18:02;;;;;;;0.00;0.00;;;15.40;99.90;;;;;;5072197;28;20052;-78
2023/08/29 04:20:29;;;;;;;0.15;0.15;;;15.30;99.90;;;;;;5072371;28;20021;-78
2023/08/29 04:22:55;;;;;;;0.00;0.00;;;15.30;99.90;;;;;;5070759;28;20074;-77
2023/08/29 04:25:22;;;;;;;0.00;0.00;;;15.50;99.90;;;;;;5071216;28;20020;-77
2023/08/29 04:27:48;;;;;;;0.88;0.60;;;15.60;99.90;;;;;;5085167;28;20082;-76
2023/08/29 04:30:14;;;;;;;0.20;0.20;;;15.60;99.90;;;;;;5071073;28;20060;-76
2023/08/29 04:32:40;;;;;;;0.00;0.00;;;15.80;99.90;;;;;;5071751;28;20021;-77
2023/08/29 04:35:08;;;;;;;0.00;0.00;;;15.70;99.90;;;;;;5072289;28;20028;-78
2023/08/29 04:37:34;;;;;;;0.60;0.60;;;15.90;99.90;;;;;;5072185;28;20040;-74
2023/08/29 04:40:01;;;;;;;0.00;0.00;;;16.10;99.90;;;;;;5072265;28;20032;-78
2023/08/29 04:42:27;;;;;;;0.00;0.00;;;16.30;99.90;;;;;;5074456;28;20028;-77
2023/08/29 04:44:53;;;;;;;0.00;0.00;;;16.40;99.90;;;;;;5078361;28;20053;-77
2023/08/29 04:47:20;;;;;;;0.00;0.00;;;16.40;99.90;;;;;;5075806;28;20025;-77
2023/08/29 04:49:46;;;;;;;0.15;0.15;;;16.50;99.90;;;;;;5082236;28;20099;-77
2023/08/29 04:52:12;;;;;;;0.00;0.00;;;16.40;99.90;;;;;;5081547;28;20428;-78
2023/08/29 04:54:38;;;;;;;0.00;0.00;;;16.20;99.90;;;;;;5085063;28;20039;-76
2023/08/29 04:57:05;;;;;;;0.00;0.00;;;16.40;99.90;;;;;;5085799;28;20107;-77
2023/08/29 04:59:31;;;;;;;0.00;0.00;;;16.40;99.90;;;;;;5070824;28;20103;-77
2023/08/29 05:01:58;;;;;;;0.25;0.25;;;16.40;99.90;;;;;;5089292;28;20494;-75
2023/08/29 05:04:25;;;;;;;0.00;0.00;;;16.30;99.90;;;;;;5056710;28;20121;-77
2023/08/29 05:06:50;;;;;;;0.00;0.00;;;16.30;99.90;;;;;;5073665;28;20568;-76
2023/08/29 05:09:18;;;;;;;0.00;0.00;;;16.40;99.90;;;;;;5072436;28;20074;-77
2023/08/29 05:11:44;;;;;;;0.10;0.10;;;16.40;99.90;;;;;;5071128;28;20024;-78
2023/08/29 05:14:10;;;;;;;0.05;0.05;;;16.40;99.90;;;;;;5070861;28;20028;-77
2023/08/29 05:16:36;;;;;;;0.00;0.00;;;16.10;99.90;;;;;;5070567;28;20024;-77
2023/08/29 05:19:01;;;;;;;0.10;0.10;;;16.10;99.90;;;;;;5070657;28;20086;-77
2023/08/29 05:21:27;;;;;;;0.00;0.00;;;16.00;99.90;;;;;;5070887;28;20062;-78
2023/08/29 05:23:54;;;;;;;0.00;0.00;;;16.10;99.90;;;;;;5070733;28;20020;-76
2023/08/29 05:26:20;;;;;;;0.17;0.13;;;16.30;99.90;;;;;;5070633;28;20044;-78
2023/08/29 05:28:45;;;;;;;4.75;0.63;;;16.30;99.90;;;;;;5072130;28;20020;-78
2023/08/29 05:31:11;;;;;;;0.00;0.00;;;16.00;99.90;;;;;;5071492;28;20020;-76
2023/08/29 05:33:37;;;;;;;0.70;0.70;;;16.20;99.90;;;;;;5067805;28;20020;-76
2023/08/29 05:36:03;;;;;;;0.30;0.30;;;16.10;99.90;;;;;;5073148;28;20483;-76
2023/08/29 05:38:29;;;;;;;0.63;0.63;;;16.30;99.90;;;;;;5088018;28;20031;-78
2023/08/29 05:40:56;;;;;;;0.30;0.30;;;16.30;99.90;;;;;;5076786;28;20075;-76
2023/08/29 05:43:21;;;;;;;1.35;1.25;;;16.10;99.90;;;;;;5072940;28;20060;-77
2023/08/29 05:45:47;;;;;;;0.43;0.43;;;15.80;99.90;;;;;;5079298;28;20054;-77
2023/08/29 05:48:13;;;;;;;0.13;0.13;;;15.80;99.90;;;;;;5079532;28;20033;-77
2023/08/29 06:01:59;;;;;;;0.00;0.00;;;15.70;99.90;;;;;;5057525;28;20399;-76
2023/08/29 06:04:28;;;;;;;0.40;0.40;;;15.90;99.90;;;;;;5045687;28;20021;-76
2023/08/29 06:06:55;;;;;;;0.38;0.38;;;16.00;99.90;;;;;;5037428;28;20045;-78
2023/08/29 06:09:20;;;;;;;0.75;0.75;;;15.80;99.90;;;;;;5033073;28;20094;-77
2023/08/29 06:11:46;;;;;;;0.10;0.10;;;15.70;99.90;;;;;;5076988;27;20480;-76
2023/08/29 06:14:12;;;;;;;2.42;0.90;;;15.70;99.90;;;;;;5032833;27;20075;-76
2023/08/29 06:16:38;;;;;;;0.65;0.65;;;15.70;99.90;;;;;;5115144;27;20037;-77
2023/08/29 06:19:03;;;;;;;3.28;2.95;;;15.70;99.90;;;;;;5108538;27;20045;-77
2023/08/29 06:21:29;;;;;;;0.08;0.08;;;15.80;99.90;;;;;;5053958;27;20720;-76
2023/08/29 06:23:55;;;;;;;0.00;0.00;;;16.00;99.90;;;;;;5060372;27;20442;-78
2023/08/29 06:26:21;;;;;;;0.25;0.25;;;16.00;99.90;;;;;;5043624;27;20029;-76
2023/08/29 06:28:47;;;;;;;0.40;0.40;;;15.70;99.90;;;;;;5041688;27;20052;-76
2023/08/29 06:31:13;;;;;;;0.00;0.00;;;15.60;99.90;;;;;;5115164;27;20038;-80
2023/08/29 06:33:40;;;;;;;0.10;0.10;;;16.00;99.90;;;;;;5078791;27;20021;-79
2023/08/29 06:36:06;;;;;;;0.00;0.00;;;16.00;99.90;;;;;;5059068;27;20470;-79
2023/08/29 06:38:32;;;;;;;0.00;0.00;;;16.30;99.90;;;;;;5048596;27;20058;-80
2023/08/29 06:40:58;;;;;;;0.47;0.47;;;16.50;99.90;;;;;;5086611;27;20467;-79
2023/08/29 06:43:25;;;;;;;0.40;0.40;;;16.30;99.90;;;;;;5088441;27;20546;-80
2023/08/29 06:45:51;;;;;;;0.00;0.00;;;16.60;99.90;;;;;;5052220;27;20033;-79
2023/08/29 06:48:17;;;;;;;0.00;0.00;;;16.90;99.90;;;;;;5055573;27;20033;-79
2023/08/29 06:50:43;;;;;;;0.63;0.63;;;17.30;99.90;;;;;;5095240;27;20429;-80
2023/08/29 06:53:09;;;;;;;0.00;0.00;;;17.00;99.90;;;;;;5079596;27;20102;-76
2023/08/29 06:55:35;;;;;;;0.00;0.00;;;17.10;99.90;;;;;;5046738;27;20096;-80
2023/08/29 06:58:02;;;;;;;0.13;0.13;;;17.20;99.90;;;;;;5059382;27;20029;-77
2023/08/29 07:00:28;;;;;;;0.00;0.00;;;17.10;99.90;;;;;;5031450;28;20030;-76
2023/08/29 07:02:54;;;;;;;0.30;0.30;;;17.40;99.90;;;;;;5067303;28;20089;-76
2023/08/29 07:05:20;;;;;;;0.22;0.22;;;17.40;99.90;;;;;;5053799;28;20023;-76
2023/08/29 07:07:46;;;;;;;0.15;0.15;;;17.50;99.90;;;;;;5038439;28;20026;-79
2023/08/29 07:10:12;;;;;;;0.65;0.65;;;17.70;99.90;;;;;;5025252;28;20022;-79
2023/08/29 07:12:38;;;;;;;0.10;0.10;;;17.70;99.90;;;;;;5010916;28;20049;-78
2023/08/29 07:15:04;;;;;;;1.85;1.40;;;17.50;99.90;;;;;;5008743;28;20026;-79
2023/08/29 07:17:30;;;;;;;0.35;0.32;;;17.40;99.90;;;;;;5012189;28;20415;-78
2023/08/29 07:19:55;;;;;;;0.70;0.70;;;17.60;99.90;;;;;;5012305;28;20026;-77
2023/08/29 07:22:22;;;;;;;0.30;0.30;;;17.30;99.90;;;;;;5002123;28;20049;-77
2023/08/29 07:24:48;;;;;;;28.77;12.70;;;17.20;99.90;;;;;;5005299;28;20021;-80
2023/08/29 07:27:15;;;;;;;1.00;0.47;;;17.20;99.90;;;;;;5000782;28;20026;-79
2023/08/29 07:29:41;;;;;;;0.30;0.30;;;17.50;99.90;;;;;;5019395;28;20515;-79
2023/08/29 07:32:07;;;;;;;0.00;0.00;;;18.00;99.90;;;;;;5009077;28;20026;-78
2023/08/29 07:34:34;;;;;;;0.28;0.28;;;18.20;99.90;;;;;;5007326;28;20026;-78
2023/08/29 07:36:59;;;;;;;0.00;0.00;;;17.70;99.90;;;;;;5007780;28;20034;-78
2023/08/29 07:39:25;;;;;;;0.20;0.20;;;18.00;99.90;;;;;;5004251;28;20156;-78
2023/08/29 07:41:51;;;;;;;0.10;0.10;;;18.40;99.90;;;;;;4999111;28;20038;-79
2023/08/29 07:44:17;;;;;;;0.10;0.10;;;18.70;99.90;;;;;;5007465;28;20037;-78
2023/08/29 07:46:43;;;;;;;0.00;0.00;;;19.00;99.90;;;;;;5014163;28;20030;-78
2023/08/29 07:49:20;;;;;;;0.00;0.00;;;18.90;99.90;;;;;;5004146;28;20435;-78
2023/08/29 07:51:46;;;;;;;0.00;0.00;;;18.50;99.90;;;;;;5019512;28;20487;-79
2023/08/29 07:54:12;;;;;;;0.65;0.65;;;18.20;99.90;;;;;;5000770;28;20025;-78
2023/08/29 07:56:38;;;;;;;0.00;0.00;;;18.00;99.90;;;;;;5010793;28;20030;-78
2023/08/29 07:59:04;;;;;;;5.53;1.08;;;18.20;99.90;;;;;;5010171;28;20067;-78
2023/08/29 08:01:29;;;;;;;0.00;0.00;;;18.00;99.90;;;;;;5002583;28;20441;-78
2023/08/29 08:03:55;;;;;;;0.55;0.55;;;18.00;99.90;;;;;;5006604;28;20105;-78
2023/08/29 08:06:21;;;;;;;0.00;0.00;;;18.20;99.90;;;;;;5008519;28;20029;-78
2023/08/29 08:08:47;;;;;;;0.00;0.00;;;18.30;99.90;;;;;;5009150;28;20056;-79
2023/08/29 08:11:13;;;;;;;0.00;0.00;;;18.50;99.90;;;;;;5004680;28;20088;-78
2023/08/29 08:13:38;;;;;;;0.00;0.00;;;18.40;99.90;;;;;;4996812;28;20480;-78
2023/08/29 08:16:04;;;;;;;0.00;0.00;;;18.70;99.90;;;;;;5006526;28;20066;-78
2023/08/29 08:18:30;;;;;;;0.00;0.00;;;18.90;99.90;;;;;;5010584;28;20026;-79
2023/08/29 08:20:56;;;;;;;0.00;0.00;;;19.10;99.90;;;;;;5016693;28;20064;-78
2023/08/29 08:23:22;;;;;;;0.52;0.47;;;19.20;99.90;;;;;;5006824;28;20033;-78
2023/08/29 08:25:48;;;;;;;0.00;0.00;;;18.60;99.90;;;;;;5008515;28;20106;-78
2023/08/29 08:28:14;;;;;;;1.58;1.48;;;18.70;99.90;;;;;;5003292;28;20022;-77
2023/08/29 08:30:39;;;;;;;0.57;0.57;;;18.40;99.90;;;;;;5016483;28;20078;-78
2023/08/29 08:33:06;;;;;;;1.45;0.90;;;18.40;99.90;;;;;;5002013;28;20022;-78
2023/08/29 08:35:32;;;;;;;1.15;1.05;;;18.50;99.90;;;;;;5008185;28;20026;-78
2023/08/29 08:37:58;;;;;;;3.63;1.02;;;18.50;99.90;;;;;;5009798;28;20033;-78
2023/08/29 08:40:24;;;;;;;2.17;1.52;;;18.40;99.90;;;;;;5005177;28;20045;-78
2023/08/29 08:42:50;;;;;;;0.05;0.05;;;18.60;99.90;;;;;;5010500;28;20026;-78
2023/08/29 08:45:19;;;;;;;0.00;0.00;;;18.50;99.90;;;;;;5010868;28;20405;-78
2023/08/29 08:47:45;;;;;;;1.55;1.20;;;18.70;99.90;;;;;;5009873;28;20041;-77
2023/08/29 08:50:11;;;;;;;1.45;0.30;;;18.60;99.90;;;;;;5010084;28;20026;-78
2023/08/29 08:52:39;;;;;;;3.30;0.40;;;18.90;99.90;;;;;;5009442;28;20037;-78
2023/08/29 08:55:06;;;;;;;0.45;0.20;;;19.40;99.90;;;;;;5010232;28;20026;-77
2023/08/29 08:57:32;;;;;;;1.77;0.40;;;19.90;99.90;;;;;;5009528;28;20033;-77
2023/08/29 08:59:57;;;;;;;0.70;0.40;;;19.60;99.90;;;;;;5008993;28;20509;-78
2023/08/29 09:02:24;;;;;;;0.10;0.10;;;19.20;99.90;;;;;;5009838;28;20038;-78
2023/08/29 09:04:50;;;;;;;2.38;1.08;;;19.20;99.90;;;;;;4995552;28;20420;-78
2023/08/29 09:07:17;;;;;;;0.00;0.00;;;19.10;99.90;;;;;;5003048;28;20019;-77
2023/08/29 09:09:42;;;;;;;0.22;0.22;;;19.10;99.90;;;;;;4998130;28;20041;-78
2023/08/29 09:12:08;;;;;;;0.20;0.20;;;19.40;99.90;;;;;;5010417;28;20061;-76
2023/08/29 09:14:34;;;;;;;1.45;0.73;;;19.00;99.90;;;;;;5009884;28;20053;-75
2023/08/29 09:17:01;;;;;;;1.13;0.93;;;19.50;99.90;;;;;;5026759;28;20093;-75
2023/08/29 09:19:33;;;;;;;1.48;1.38;;;19.40;99.90;;;;;;5003565;28;20053;-76
2023/08/29 09:21:59;;;;;;;0.28;0.28;;;19.40;99.90;;;;;;5001973;28;20120;-75
2023/08/29 09:24:28;;;;;;;0.75;0.63;;;19.80;99.90;;;;;;5008701;28;20117;-75
2023/08/29 09:26:54;;;;;;;0.40;0.32;;;19.90;99.90;;;;;;5036229;28;20449;-76
2023/08/29 09:29:21;;;;;;;0.82;0.82;;;20.00;99.90;;;;;;5001907;28;20083;-75
2023/08/29 09:31:47;;;;;;;0.00;0.00;;;20.10;99.90;;;;;;5023515;28;20049;-79
2023/08/29 09:34:28;;;;;;;4.43;0.80;;;20.20;99.90;;;;;;5009160;28;20568;-79
2023/08/29 09:36:55;;;;;;;0.30;0.30;;;20.00;99.90;;;;;;5000567;28;20105;-76
2023/08/29 09:39:21;;;;;;;0.52;0.50;;;20.20;99.90;;;;;;5007750;28;20025;-77
2023/08/29 09:42:02;;;;;;;0.95;0.77;;;20.30;99.90;;;;;;5003865;28;20045;-80
2023/08/29 09:44:28;;;;;;;0.10;0.10;;;20.70;99.90;;;;;;5006340;28;20026;-77
2023/08/29 09:46:55;;;;;;;1.45;0.90;;;20.70;99.90;;;;;;5007258;28;20032;-79
2023/08/29 09:49:21;;;;;;;1.23;1.17;;;21.20;99.90;;;;;;5009499;28;20038;-79
2023/08/29 09:51:48;;;;;;;1.08;0.90;;;20.60;99.90;;;;;;5003926;28;20037;-79
2023/08/29 09:54:18;;;;;;;0.15;0.15;;;20.50;99.90;;;;;;5009764;28;20515;-79
2023/08/29 09:56:45;;;;;;;0.00;0.00;;;20.80;99.90;;;;;;5009769;28;20030;-78
2023/08/29 09:59:15;;;;;;;0.30;0.30;;;20.80;99.90;;;;;;5006416;28;20022;-79
2023/08/29 10:01:42;;;;;;;2.90;1.08;;;20.70;99.90;;;;;;5041095;28;20118;-79
2023/08/29 10:04:11;;;;;;;0.43;0.43;;;21.10;99.90;;;;;;5003651;28;20026;-79
2023/08/29 10:06:39;;;;;;;0.00;0.00;;;21.10;99.90;;;;;;5004276;28;20039;-79
2023/08/29 10:09:06;;;;;;;0.25;0.25;;;21.30;99.90;;;;;;5001136;28;20102;-79
2023/08/29 10:11:32;;;;;;;0.00;0.00;;;21.70;99.90;;;;;;5012582;28;20060;-80
2023/08/29 10:13:59;;;;;;;0.00;0.00;;;21.90;99.90;;;;;;5010748;28;20050;-79
2023/08/29 10:16:25;;;;;;;1.60;1.05;;;21.80;99.90;;;;;;5008623;28;20026;-79
2023/08/29 10:18:52;;;;;;;0.43;0.43;;;21.00;99.90;;;;;;5003694;28;20597;-79
2023/08/29 10:21:21;;;;;;;2.78;0.90;;;21.20;99.90;;;;;;5007979;28;20101;-79
2023/08/29 10:23:50;;;;;;;0.00;0.00;;;21.50;99.90;;;;;;5005790;28;20088;-78
2023/08/29 10:26:20;;;;;;;1.45;0.95;;;22.10;99.90;;;;;;4998497;28;20027;-79
2023/08/29 10:28:47;;;;;;;2.17;1.00;;;21.70;99.90;;;;;;5009065;28;20071;-79
2023/08/29 10:31:14;;;;;;;2.28;0.10;;;21.90;99.90;;;;;;5005690;28;20044;-79
2023/08/29 10:33:40;;;;;;;0.20;0.20;;;22.20;99.90;;;;;;5007491;28;20029;-80
2023/08/29 10:36:08;;;;;;;0.90;0.40;;;22.20;99.90;;;;;;5007865;28;20018;-78
2023/08/29 10:38:46;;;;;;;2.80;1.83;;;22.00;99.90;;;;;;5011673;28;20462;-79
2023/08/29 10:41:12;;;;;;;0.00;0.00;;;21.90;99.90;;;;;;5016821;28;20069;-79
2023/08/29 10:43:38;;;;;;;1.55;0.63;;;21.90;99.90;;;;;;5011368;28;20032;-80
2023/08/29 10:46:10;;;;;;;2.72;1.85;;;22.30;99.90;;;;;;5004046;28;20026;-79
2023/08/29 10:48:42;;;;;;;0.32;0.28;;;22.70;99.90;;;;;;5003767;28;20546;-80
2023/08/29 10:51:11;;;;;;;0.00;0.00;;;22.70;99.90;;;;;;5007255;28;20099;-79
2023/08/29 10:53:52;;;;;;;0.88;0.75;;;22.80;99.90;;;;;;5011894;28;20106;-79
2023/08/29 10:56:20;;;;;;;3.08;1.17;;;22.10;99.90;;;;;;5006733;28;20108;-79
2023/08/29 10:58:50;;;;;;;2.53;1.42;;;22.10;99.90;;;;;;5011622;28;20048;-79
2023/08/29 11:01:28;;;;;;;0.10;0.10;;;22.40;99.90;;;;;;5000027;28;20039;-79
2023/08/29 11:04:15;;;;;;;0.17;0.17;;;22.90;99.90;;;;;;5005149;28;20520;-80
2023/08/29 11:06:56;;;;;;;1.88;0.90;;;23.40;99.90;;;;;;5010907;28;20022;-79
2023/08/29 11:09:24;;;;;;;0.57;0.53;;;23.90;99.00;;;;;;5008574;28;20026;-79
2023/08/29 11:12:10;;;;;;;0.10;0.10;;;23.20;99.90;;;;;;5010679;28;20329;-78
2023/08/29 11:14:56;;;;;;;4.30;2.20;;;23.20;99.90;;;;;;5002524;28;20063;-79
2023/08/29 11:17:24;;;;;;;1.20;1.10;;;22.60;99.90;;;;;;5010074;28;20053;-79
2023/08/29 11:19:58;;;;;;;0.40;0.30;;;22.20;99.90;;;;;;4997905;28;20026;-78
2023/08/29 11:22:28;;;;;;;2.45;1.33;;;22.20;99.90;;;;;;4996576;28;20042;-78
2023/08/29 11:24:55;;;;;;;1.27;0.40;;;22.10;99.90;;;;;;5009331;28;20477;-81
2023/08/29 11:27:25;;;;;;;0.40;0.22;;;22.30;99.90;;;;;;5000173;28;20037;-80
2023/08/29 11:29:52;;;;;;;1.55;1.10;;;21.30;99.90;;;;;;5006808;28;20034;-80
2023/08/29 11:32:21;;;;;;;1.40;0.80;;;21.40;99.90;;;;;;5005799;28;20086;-81
2023/08/29 11:34:52;;;;;;;0.55;0.55;;;21.10;99.90;;;;;;4991211;28;20026;-81
2023/08/29 11:37:18;;;;;;;0.80;0.70;;;20.20;99.90;;;;;;5012071;28;20022;-80
2023/08/29 11:39:55;;;;;;;0.45;0.43;;;19.80;99.90;;;;;;5006965;28;20038;-81
2023/08/29 11:42:21;;;;;;;0.00;0.00;;;19.90;99.90;;;;;;5004086;28;20061;-81
2023/08/29 11:44:49;;;;;;;0.25;0.25;;;19.70;99.90;;;;;;5003786;28;20087;-80
2023/08/29 11:47:15;;;;;;;1.48;0.73;;;20.00;99.90;;;;;;4993914;28;20127;-79
2023/08/29 11:49:42;;;;;;;0.93;0.85;;;20.10;99.90;;;;;;5033020;28;20484;-79
2023/08/29 11:52:08;;;;;;;3.10;0.85;;;19.80;99.90;;;;;;4997293;28;20037;-79
2023/08/29 11:54:47;;;;;;;0.28;0.28;;;19.70;99.90;;;;;;5006424;28;20380;-78
2023/08/29 11:57:14;;;;;;;0.95;0.68;;;19.50;99.90;;;;;;5010718;28;20022;-79
2023/08/29 11:59:44;;;;;;;0.00;0.00;;;19.40;99.90;;;;;;5010768;28;20397;-78
2023/08/29 12:02:17;;;;;;;0.43;0.13;;;19.30;99.90;;;;;;5011046;28;20034;-77
2023/08/29 12:04:47;;;;;;;0.30;0.30;;;19.30;99.90;;;;;;5006843;28;20121;-79
2023/08/29 12:07:15;;;;;;;1.73;1.35;;;19.30;99.90;;;;;;5056120;28;20036;-78
2023/08/29 12:09:42;;;;;;;0.90;0.35;;;19.10;99.90;;;;;;5028752;28;20155;-78
2023/08/29 12:12:28;;;;;;;0.75;0.57;;;19.20;99.90;;;;;;5016180;28;20038;-78
2023/08/29 12:14:54;;;;;;;0.60;0.38;;;19.20;99.90;;;;;;5091145;28;20093;-78
2023/08/29 12:17:20;;;;;;;0.38;0.38;;;19.40;99.90;;;;;;5079967;28;20494;-78
2023/08/29 12:19:47;;;;;;;0.00;0.00;;;19.50;99.90;;;;;;5041775;28;20385;-78
2023/08/29 12:22:13;;;;;;;0.20;0.20;;;19.50;99.90;;;;;;5024273;28;20031;-78
2023/08/29 12:24:39;;;;;;;0.13;0.13;;;19.60;99.90;;;;;;5017372;28;20095;-78
2023/08/29 12:27:06;;;;;;;1.08;0.82;;;19.20;99.90;;;;;;5089655;28;20463;-78
2023/08/29 12:29:32;;;;;;;0.70;0.70;;;19.20;99.90;;;;;;5066775;28;20054;-77
2023/08/29 12:31:58;;;;;;;0.88;0.20;;;19.30;99.90;;;;;;5033099;28;20041;-78
2023/08/29 12:34:24;;;;;;;0.32;0.32;;;19.40;99.90;;;;;;5019628;28;20038;-78
2023/08/29 12:36:50;;;;;;;0.38;0.20;;;19.40;99.90;;;;;;5048411;28;20049;-78
2023/08/29 12:39:16;;;;;;;0.00;0.00;;;19.40;99.90;;;;;;5085376;28;20069;-78
2023/08/29 12:41:42;;;;;;;2.20;1.33;;;19.30;99.90;;;;;;5054683;28;20022;-77
2023/08/29 12:44:08;;;;;;;0.30;0.30;;;19.30;99.90;;;;;;5029194;28;20034;-77
2023/08/29 12:46:34;;;;;;;0.00;0.00;;;19.20;99.90;;;;;;5008616;28;20033;-77
2023/08/29 12:49:02;;;;;;;0.20;0.20;;;19.30;99.90;;;;;;5059533;28;20023;-78
2023/08/29 12:51:31;;;;;;;0.98;0.70;;;19.30;99.90;;;;;;5071163;28;20097;-77
2023/08/29 12:53:57;;;;;;;0.22;0.22;;;19.70;99.90;;;;;;5006593;28;20042;-78
2023/08/29 12:56:23;;;;;;;0.43;0.43;;;19.90;99.90;;;;;;5009393;28;20065;-77
2023/08/29 12:58:48;;;;;;;0.10;0.10;;;19.80;99.90;;;;;;5022516;28;20030;-78
2023/08/29 13:01:14;;;;;;;1.55;0.70;;;19.90;99.90;;;;;;5063961;28;20117;-78